EST,Max TemperatureF,Mean TemperatureF,Min TemperatureF,Max Dew PointF,MeanDew PointF,Min DewpointF,Max Humidity, Mean Humidity, Min Humidity, Max Sea Level PressureIn, Mean Sea Level PressureIn, Min Sea Level PressureIn, Max VisibilityMiles, Mean VisibilityMiles, Min VisibilityMiles, Max Wind SpeedMPH, Mean Wind SpeedMPH, Max Gust SpeedMPH,PrecipitationIn, CloudCover, Events, WindDirDegrees
2012-11-1,55,44,33,34,25,19,75,51,26,29.94,29.89,29.86,10,10,10,18,7,24,0.00,5,,257
2012-11-2,56,45,33,33,30,28,82,60,38,30.09,29.97,29.83,10,10,8,12,5,15,0.00,2,,314
2012-11-3,47,39,30,40,35,28,92,81,70,30.12,30.09,30.06,10,10,4,12,4,16,0.15,6,Rain-Thunderstorm,45
2012-11-4,51,43,34,38,34,29,92,71,50,30.17,30.13,30.09,10,9,5,9,4,14,0.00,1,,352
2012-11-5,50,37,23,34,30,22,96,76,56,30.17,30.11,30.07,10,9,5,10,2,13,0.00,1,,83
2012-11-6,54,43,32,36,31,28,82,63,44,30.06,29.99,29.91,10,10,10,8,1,12,0.00,4,,53
2012-11-7,52,45,37,40,38,33,93,73,52,30.12,29.96,29.88,10,6,2,8,3,14,0.05,6,Rain,315
2012-11-8,54,41,27,33,30,26,100,71,41,30.26,30.20,30.12,10,7,2,8,1,13,0.00,0,,320
2012-11-9,61,44,27,41,34,26,100,73,46,30.28,30.20,30.15,10,8,4,12,4,17,0.00,0,,179
2012-11-10,72,57,41,46,39,35,76,55,34,30.25,30.19,30.14,10,10,10,16,7,22,0.00,0,,185
2012-11-11,70,55,40,47,38,33,73,50,26,30.28,30.18,30.09,10,10,10,28,10,36,0.00,0,,173
2012-11-12,63,46,29,57,44,26,96,76,56,30.44,30.18,30.01,10,7,1,28,8,39,0.82,6,Rain,246
2012-11-13,46,35,23,29,25,21,96,68,40,30.52,30.48,30.44,10,10,9,9,2,12,0.00,0,,331
2012-11-14,46,35,24,28,26,22,88,69,49,30.51,30.44,30.36,10,10,10,13,3,17,0.00,0,,50
2012-11-15,50,37,23,30,26,22,92,67,42,30.39,30.35,30.31,10,10,7,8,1,10,0.00,0,,20
2012-11-16,53,38,23,33,29,22,92,65,38,30.46,30.42,30.36,10,9,5,9,3,16,0.00,0,,17
2012-11-17,59,43,26,34,29,24,92,64,36,30.53,30.47,30.44,10,9,5,12,4,14,0.00,0,,59
2012-11-18,62,44,26,32,28,24,85,56,27,30.45,30.40,30.35,10,10,10,8,1,10,0.00,0,,62
2012-11-19,61,45,28,36,31,25,92,63,33,30.36,30.29,30.19,10,10,9,3,0,5,0.00,0,,-1
2012-11-20,64,49,34,42,37,32,89,62,34,30.18,30.12,30.06,10,10,9,7,1,9,0.00,5,,172
2012-11-21,65,50,35,41,38,34,92,66,40,30.23,30.19,30.10,10,10,8,6,1,8,0.00,2,,330
2012-11-22,66,49,31,42,38,29,96,69,42,30.23,30.16,30.06,10,8,5,15,5,21,0.00,0,,200
2012-11-23,56,45,34,48,35,21,77,60,42,30.20,30.07,29.99,10,10,7,20,10,30,0.01,5,Rain,268
2012-11-24,36,29,21,21,18,17,84,66,47,30.27,30.22,30.16,10,10,9,12,4,15,0.00,4,,299
2012-11-25,52,37,22,25,22,20,84,57,30,30.14,30.04,29.92,10,10,10,20,6,24,0.00,0,,211
2012-11-26,51,39,26,40,30,23,93,68,42,30.20,30.14,30.06,10,9,4,6,1,7,0.10,4,Rain,330
2012-11-27,43,34,25,39,31,25,92,75,57,30.35,30.28,30.19,10,7,2,15,5,20,0.03,6,Rain,11
2012-11-28,44,34,23,30,24,20,100,71,41,30.47,30.39,30.32,10,5,0,9,3,13,0.00,1,Fog,245
2012-11-29,52,36,20,30,25,17,92,65,38,30.43,30.35,30.26,10,9,4,12,3,15,0.00,0,,195
2012-11-30,57,46,34,41,34,27,92,72,51,30.28,30.23,30.18,10,10,10,21,7,25,0.00,2,,202